createdAt,value
2019-03-24T00:01:04.330Z,75.46
2019-03-24T00:03:34.020Z,75.41
2019-03-24T00:06:03.754Z,75.47
2019-03-24T00:08:34.318Z,75.22
2019-03-24T00:11:04.593Z,75.46
2019-03-24T00:13:34.691Z,75.63
2019-03-24T00:16:04.399Z,75.73
2019-03-24T00:18:34.395Z,75.74
2019-03-24T00:21:04.420Z,75.95
2019-03-24T00:23:34.449Z,75.88
2019-03-24T00:26:04.566Z,75.68
2019-03-24T00:28:34.353Z,75.67
2019-03-24T00:31:04.008Z,76.01
2019-03-24T00:33:34.113Z,76.35
2019-03-24T00:36:03.797Z,76.41
2019-03-24T00:38:34.146Z,76.50
2019-03-24T00:41:04.190Z,76.49
2019-03-24T00:43:33.877Z,76.41
2019-03-24T00:46:03.741Z,76.34
2019-03-24T00:48:33.467Z,76.25
2019-03-24T00:51:03.154Z,76.26
2019-03-24T00:53:33.320Z,76.12
2019-03-24T00:56:03.433Z,76.06
2019-03-24T00:58:33.362Z,76.17
2019-03-24T01:01:03.091Z,75.99
2019-03-24T01:03:32.795Z,75.80
2019-03-24T01:06:02.659Z,75.73
2019-03-24T01:08:32.331Z,75.83
2019-03-24T01:11:02.026Z,75.76
2019-03-24T01:13:31.718Z,75.55
2019-03-24T01:16:01.414Z,75.25
2019-03-24T01:18:31.112Z,75.31
2019-03-24T01:21:01.388Z,75.44
2019-03-24T01:23:31.106Z,75.40
2019-03-24T01:26:00.968Z,75.53
2019-03-24T01:28:33.374Z,75.59
2019-03-24T01:31:03.092Z,75.67
2019-03-24T01:33:33.708Z,75.74
2019-03-24T01:36:03.608Z,75.75
2019-03-24T01:38:33.415Z,75.82
2019-03-24T01:41:03.465Z,75.88
2019-03-24T01:43:33.335Z,75.92
2019-03-24T01:46:03.086Z,75.84
2019-03-24T01:48:33.439Z,75.91
2019-03-24T01:51:03.148Z,76.29
2019-03-24T01:53:33.053Z,76.56
2019-03-24T01:56:02.720Z,76.62
2019-03-24T01:58:32.437Z,76.74
2019-03-24T02:01:02.694Z,76.96
2019-03-24T02:03:32.361Z,77.23
2019-03-24T02:06:02.477Z,77.30
2019-03-24T02:08:32.215Z,77.59
2019-03-24T02:11:01.967Z,77.57
2019-03-24T02:13:32.194Z,77.51
2019-03-24T02:16:09.268Z,77.44
2019-03-24T02:18:33.590Z,77.16
2019-03-24T02:21:03.558Z,76.98
2019-03-24T02:23:33.696Z,76.90
2019-03-24T02:26:03.366Z,76.71
2019-03-24T02:28:33.392Z,76.35
2019-03-24T02:31:03.123Z,76.18
2019-03-24T02:33:33.331Z,76.10
2019-03-24T02:36:03.432Z,76.04
2019-03-24T02:38:33.108Z,76.05
2019-03-24T02:41:02.938Z,75.98
2019-03-24T02:43:33.001Z,75.84
2019-03-24T02:46:02.684Z,75.60
2019-03-24T02:48:32.588Z,75.50
2019-03-24T02:51:02.622Z,75.79
2019-03-24T02:53:32.308Z,75.79
2019-03-24T02:56:02.564Z,75.93
2019-03-24T02:58:32.248Z,76.20
2019-03-24T03:01:02.303Z,76.46
2019-03-24T03:03:32.030Z,76.54
2019-03-24T03:06:02.134Z,76.62
2019-03-24T03:08:31.888Z,76.49
2019-03-24T03:11:02.008Z,76.24
2019-03-24T03:13:31.816Z,75.92
2019-03-24T03:16:01.810Z,75.66
2019-03-24T03:18:32.572Z,75.75
2019-03-24T03:21:03.797Z,75.60
2019-03-24T03:23:33.951Z,75.59
2019-03-24T03:26:03.620Z,75.60
2019-03-24T03:28:33.914Z,75.61
2019-03-24T03:31:03.619Z,75.49
2019-03-24T03:33:33.283Z,75.41
2019-03-24T03:36:03.115Z,75.39
2019-03-24T03:38:32.817Z,75.34
2019-03-24T03:41:02.723Z,75.34
2019-03-24T03:43:32.881Z,75.33
2019-03-24T03:46:02.633Z,75.25
2019-03-24T03:48:32.654Z,75.17
2019-03-24T03:51:02.386Z,74.96
2019-03-24T03:53:33.124Z,74.96
2019-03-24T03:56:03.140Z,74.92
2019-03-24T03:58:33.136Z,74.79
2019-03-24T04:01:02.954Z,74.55
2019-03-24T04:03:32.704Z,74.91
2019-03-24T04:06:02.783Z,75.14
2019-03-24T04:08:32.932Z,75.35
2019-03-24T04:11:02.694Z,75.39
2019-03-24T04:13:32.399Z,75.25
2019-03-24T04:16:02.335Z,75.00
2019-03-24T04:18:32.077Z,74.93
2019-03-24T04:21:01.755Z,74.87
2019-03-24T04:23:31.479Z,74.75
2019-03-24T04:26:01.209Z,74.89
2019-03-24T04:28:30.929Z,75.10
2019-03-24T04:31:01.434Z,75.35
2019-03-24T04:33:31.353Z,75.38
2019-03-24T04:36:01.436Z,75.26
2019-03-24T04:38:31.174Z,75.54
2019-03-24T04:41:00.995Z,75.61
2019-03-24T04:43:30.731Z,75.67
2019-03-24T04:46:00.440Z,75.42
2019-03-24T04:48:30.151Z,74.77
2019-03-24T04:50:59.849Z,74.25
2019-03-24T04:53:29.948Z,73.95
2019-03-24T04:55:59.947Z,73.79
2019-03-24T04:58:29.638Z,73.54
2019-03-24T05:00:59.397Z,73.47
2019-03-24T05:03:29.136Z,73.37
2019-03-24T05:05:58.804Z,73.49
2019-03-24T05:08:28.665Z,73.62
2019-03-24T05:10:58.848Z,73.70
2019-03-24T05:13:28.575Z,73.80
2019-03-24T05:15:58.614Z,73.61
2019-03-24T05:18:29.167Z,73.65
2019-03-24T05:20:59.272Z,73.75
2019-03-24T05:23:28.969Z,74.25
2019-03-24T05:25:58.660Z,74.75
2019-03-24T05:28:28.872Z,74.98
2019-03-24T05:30:58.875Z,75.02
2019-03-24T05:33:28.998Z,75.14
2019-03-24T05:35:58.684Z,75.42
2019-03-24T05:38:28.778Z,75.46
2019-03-24T05:40:58.503Z,75.59
2019-03-24T05:43:28.477Z,75.83
2019-03-24T05:45:58.214Z,75.93
2019-03-24T05:48:28.327Z,75.99
2019-03-24T05:50:58.372Z,76.06
2019-03-24T05:53:28.074Z,76.15
2019-03-24T05:55:58.205Z,76.18
2019-03-24T05:58:27.893Z,76.15
2019-03-24T06:00:57.597Z,76.03
2019-03-24T06:03:27.491Z,76.04
2019-03-24T06:05:57.538Z,75.93
2019-03-24T06:08:27.225Z,76.05
2019-03-24T06:10:57.141Z,75.71
2019-03-24T06:13:27.107Z,75.45
2019-03-24T06:15:56.791Z,75.07
2019-03-24T06:18:26.535Z,74.96
2019-03-24T06:20:56.249Z,75.04
2019-03-24T06:23:26.516Z,75.20
2019-03-24T06:25:56.608Z,75.38
2019-03-24T06:28:26.315Z,75.58
2019-03-24T06:30:56.117Z,75.63
2019-03-24T06:33:26.239Z,75.80
2019-03-24T06:35:55.929Z,75.89
2019-03-24T06:38:26.015Z,75.87
2019-03-24T06:40:56.929Z,75.88
2019-03-24T06:43:27.103Z,75.88
2019-03-24T06:45:56.906Z,75.78
2019-03-24T06:48:26.684Z,75.90
2019-03-24T06:50:56.870Z,76.01
2019-03-24T06:53:26.843Z,75.98
2019-03-24T06:55:56.620Z,76.01
2019-03-24T06:58:26.649Z,75.98
2019-03-24T07:00:56.556Z,76.04
2019-03-24T07:03:26.233Z,75.81
2019-03-24T07:05:56.239Z,75.67
2019-03-24T07:08:26.128Z,75.81
2019-03-24T07:10:55.843Z,75.59
2019-03-24T07:13:26.265Z,75.17
2019-03-24T07:15:55.986Z,75.29
2019-03-24T07:18:25.993Z,75.30
2019-03-24T07:20:56.292Z,74.94
2019-03-24T07:23:25.984Z,74.79
2019-03-24T07:25:56.029Z,74.38
2019-03-24T07:28:27.270Z,73.77
2019-03-24T07:30:57.314Z,73.29
2019-03-24T07:33:27.571Z,73.24
2019-03-24T07:35:57.565Z,72.24
2019-03-24T07:38:27.294Z,72.01
2019-03-24T07:40:57.494Z,70.66
2019-03-24T07:43:27.535Z,70.63
2019-03-24T07:45:57.530Z,69.40
2019-03-24T07:48:27.246Z,67.81
2019-03-24T07:50:56.927Z,67.01
2019-03-24T07:53:26.640Z,67.94
2019-03-24T07:55:56.447Z,65.22
2019-03-24T07:58:26.492Z,64.60
2019-03-24T08:00:57.013Z,64.77
2019-03-24T08:03:26.711Z,66.16
2019-03-24T08:05:57.193Z,66.34
2019-03-24T08:08:26.923Z,66.26
2019-03-24T08:10:57.847Z,66.31
2019-03-24T08:13:28.833Z,66.16
2019-03-24T08:15:59.290Z,65.39
2019-03-24T08:18:30.196Z,64.05
2019-03-24T08:21:00.091Z,62.84
2019-03-24T08:23:30.605Z,59.85
2019-03-24T08:26:00.700Z,59.02
2019-03-24T08:28:30.940Z,58.23
2019-03-24T08:31:00.648Z,58.02
2019-03-24T08:33:30.641Z,59.43
2019-03-24T08:36:01.093Z,62.20
2019-03-24T08:38:31.181Z,60.86
2019-03-24T08:41:01.403Z,60.66
2019-03-24T08:43:32.031Z,60.00
2019-03-24T08:46:02.371Z,58.27
2019-03-24T08:48:40.531Z,56.84
2019-03-24T08:51:04.963Z,56.12
2019-03-24T08:53:34.955Z,57.54
2019-03-24T08:56:05.017Z,56.47
2019-03-24T08:58:35.197Z,57.87
2019-03-24T09:01:05.034Z,56.42
2019-03-24T09:03:35.809Z,55.45
2019-03-24T09:06:05.505Z,55.09
2019-03-24T09:08:35.272Z,54.09
2019-03-24T09:11:05.758Z,54.60
2019-03-24T09:13:35.456Z,51.94
2019-03-24T09:16:05.681Z,52.82
2019-03-24T09:18:35.358Z,52.50
2019-03-24T09:21:05.495Z,53.25
2019-03-24T09:23:35.930Z,52.48
2019-03-24T09:26:06.252Z,55.67
2019-03-24T09:28:36.382Z,54.68
2019-03-24T09:31:06.067Z,56.32
2019-03-24T09:33:36.752Z,54.67
2019-03-24T09:36:06.453Z,54.94
2019-03-24T09:38:36.130Z,53.61
2019-03-24T09:41:05.897Z,54.79
2019-03-24T09:43:35.966Z,54.64
2019-03-24T09:46:05.679Z,54.61
2019-03-24T09:48:35.363Z,53.94
2019-03-24T09:51:05.086Z,51.57
2019-03-24T09:53:35.640Z,53.07
2019-03-24T09:56:05.337Z,51.72
2019-03-24T09:58:35.212Z,51.63
2019-03-24T10:01:04.946Z,50.67
2019-03-24T10:03:36.340Z,50.92
2019-03-24T10:06:06.028Z,50.04
2019-03-24T10:08:46.602Z,51.30
2019-03-24T10:11:07.212Z,52.02
2019-03-24T10:13:36.911Z,53.41
2019-03-24T10:16:06.612Z,53.04
2019-03-24T10:18:36.348Z,54.33
2019-03-24T10:21:07.261Z,53.77
2019-03-24T10:23:36.981Z,53.99
2019-03-24T10:26:07.126Z,53.30
2019-03-24T10:28:37.259Z,52.94
2019-03-24T10:31:07.308Z,52.21
2019-03-24T10:33:37.133Z,53.92
2019-03-24T10:36:06.831Z,55.24
2019-03-24T10:38:36.922Z,52.78
2019-03-24T10:41:08.465Z,52.88
2019-03-24T10:43:38.909Z,53.32
2019-03-24T10:46:08.728Z,54.63
2019-03-24T10:48:38.491Z,54.26
2019-03-24T10:51:08.247Z,53.14
2019-03-24T10:53:37.932Z,53.04
2019-03-24T10:56:07.632Z,52.61
2019-03-24T10:58:37.389Z,53.13
2019-03-24T11:01:07.088Z,54.35
2019-03-24T11:03:36.835Z,50.85
2019-03-24T11:06:07.092Z,51.24
2019-03-24T11:08:36.815Z,50.45
2019-03-24T11:11:06.505Z,51.36
2019-03-24T11:13:36.217Z,50.10
2019-03-24T11:16:06.290Z,48.14
2019-03-24T11:18:36.252Z,46.99
2019-03-24T11:21:05.933Z,46.19
2019-03-24T11:23:35.901Z,46.68
2019-03-24T11:26:05.726Z,47.93
2019-03-24T11:28:35.427Z,47.97
2019-03-24T11:31:05.113Z,48.36
2019-03-24T11:33:34.815Z,48.97
2019-03-24T11:36:04.821Z,49.05
2019-03-24T11:38:34.537Z,45.90
2019-03-24T11:41:04.352Z,45.30
2019-03-24T11:43:35.156Z,46.21
2019-03-24T11:46:05.130Z,45.75
2019-03-24T11:48:35.245Z,47.31
2019-03-24T11:51:05.265Z,48.51
2019-03-24T11:53:35.021Z,42.97
2019-03-24T11:56:04.964Z,43.11
2019-03-24T11:58:35.156Z,43.91
2019-03-24T12:01:04.845Z,44.87
2019-03-24T12:03:34.840Z,44.54
2019-03-24T12:06:13.873Z,47.04
2019-03-24T12:08:36.140Z,46.44
2019-03-24T12:11:07.589Z,50.30
2019-03-24T12:13:37.315Z,50.30
2019-03-24T12:16:07.030Z,49.38
2019-03-24T12:18:36.766Z,49.14
2019-03-24T12:21:06.513Z,48.41
2019-03-24T12:23:37.256Z,48.56
2019-03-24T12:26:07.178Z,48.48
2019-03-24T12:28:36.849Z,48.48
2019-03-24T12:31:06.819Z,48.72
2019-03-24T12:33:36.906Z,50.52
2019-03-24T12:36:06.961Z,50.51
2019-03-24T12:38:36.724Z,49.19
2019-03-24T12:41:06.636Z,49.69
2019-03-24T12:43:37.048Z,48.95
2019-03-24T12:46:07.133Z,49.38
2019-03-24T12:48:37.241Z,49.61
2019-03-24T12:51:07.341Z,48.67
2019-03-24T12:53:37.333Z,48.71
2019-03-24T12:56:07.075Z,48.14
2019-03-24T12:58:36.746Z,46.80
2019-03-24T13:01:06.794Z,48.22
2019-03-24T13:03:36.846Z,48.10
2019-03-24T13:06:07.981Z,48.01
2019-03-24T13:08:38.402Z,48.51
2019-03-24T13:11:08.102Z,47.56
2019-03-24T13:13:38.252Z,46.67
2019-03-24T13:16:07.985Z,46.18
2019-03-24T13:18:37.692Z,46.28
2019-03-24T13:21:07.443Z,46.88
2019-03-24T13:23:37.458Z,46.75
2019-03-24T13:26:07.639Z,45.95
2019-03-24T13:28:38.501Z,45.70
2019-03-24T13:31:08.267Z,45.57
2019-03-24T13:33:38.292Z,46.00
2019-03-24T13:36:13.114Z,46.56
2019-03-24T13:38:43.123Z,46.04
2019-03-24T13:41:12.876Z,45.23
2019-03-24T13:43:43.386Z,45.25
2019-03-24T13:46:14.212Z,45.33
2019-03-24T13:48:43.876Z,44.58
2019-03-24T13:51:13.690Z,45.70
2019-03-24T13:53:44.298Z,46.91
2019-03-24T13:56:14.406Z,43.99
2019-03-24T13:58:48.192Z,43.11
2019-03-24T14:01:18.008Z,42.12
2019-03-24T14:03:47.786Z,43.22
2019-03-24T14:06:17.854Z,44.06
2019-03-24T14:08:48.663Z,43.26
2019-03-24T14:11:18.357Z,43.88
2019-03-24T14:13:48.540Z,43.36
2019-03-24T14:16:18.335Z,43.87
2019-03-24T14:18:48.738Z,45.60
2019-03-24T14:21:18.759Z,45.00
2019-03-24T14:23:48.648Z,45.00
2019-03-24T14:26:20.232Z,46.06
2019-03-24T14:28:49.955Z,45.59
2019-03-24T14:31:19.768Z,46.42
2019-03-24T14:33:49.796Z,46.61
2019-03-24T14:36:19.865Z,45.32
2019-03-24T14:38:49.630Z,46.06
2019-03-24T14:41:19.339Z,45.10
2019-03-24T14:43:49.463Z,44.56
2019-03-24T14:46:19.525Z,43.39
2019-03-24T14:48:49.537Z,43.14
2019-03-24T14:51:20.208Z,42.96
2019-03-24T14:53:50.247Z,43.42
2019-03-24T14:56:19.971Z,43.50
2019-03-24T14:58:49.714Z,43.11
2019-03-24T15:01:20.211Z,41.95
2019-03-24T15:03:50.323Z,44.04
2019-03-24T15:06:21.819Z,45.26
2019-03-24T15:08:51.865Z,46.46
2019-03-24T15:11:21.981Z,45.45
2019-03-24T15:13:51.977Z,45.63
2019-03-24T15:16:22.025Z,44.48
2019-03-24T15:18:51.719Z,43.70
2019-03-24T15:21:21.853Z,44.41
2019-03-24T15:23:52.636Z,42.63
2019-03-24T15:26:22.459Z,43.37
2019-03-24T15:28:52.628Z,43.01
2019-03-24T15:31:22.687Z,43.67
2019-03-24T15:33:53.080Z,45.57
2019-03-24T15:36:22.834Z,46.35
2019-03-24T15:38:52.819Z,46.08
2019-03-24T15:41:23.564Z,44.84
2019-03-24T15:43:53.248Z,44.53
2019-03-24T15:46:24.702Z,45.40
2019-03-24T15:48:54.939Z,46.15
2019-03-24T15:51:24.975Z,46.30
2019-03-24T15:53:55.707Z,45.75
2019-03-24T15:56:26.259Z,45.69
2019-03-24T15:58:56.145Z,45.21
2019-03-24T16:01:26.405Z,45.51
2019-03-24T16:03:56.091Z,45.35
2019-03-24T16:06:25.843Z,44.85
2019-03-24T16:08:56.301Z,45.69
2019-03-24T16:11:26.266Z,45.59
2019-03-24T16:13:55.989Z,45.41
2019-03-24T16:16:26.033Z,45.51
2019-03-24T16:18:56.209Z,44.78
2019-03-24T16:21:28.062Z,45.28
2019-03-24T16:23:57.436Z,45.19
2019-03-24T16:26:27.167Z,45.71
2019-03-24T16:28:56.903Z,45.43
2019-03-24T16:31:26.905Z,46.31
2019-03-24T16:33:56.578Z,46.20
2019-03-24T16:36:26.290Z,47.51
2019-03-24T16:39:03.621Z,48.25
2019-03-24T16:41:28.103Z,47.88
2019-03-24T16:43:57.855Z,48.24
2019-03-24T16:46:28.823Z,48.35
2019-03-24T16:48:58.538Z,47.34
2019-03-24T16:51:38.218Z,46.61
2019-03-24T16:54:00.195Z,46.87
2019-03-24T16:56:29.910Z,46.93
2019-03-24T16:58:59.984Z,46.63
2019-03-24T17:01:30.070Z,47.08
2019-03-24T17:03:59.815Z,47.28
2019-03-24T17:06:29.604Z,47.43
2019-03-24T17:08:59.519Z,48.20
2019-03-24T17:11:29.232Z,48.46
2019-03-24T17:13:58.911Z,48.92
2019-03-24T17:16:29.001Z,49.27
2019-03-24T17:18:58.665Z,49.24
2019-03-24T17:21:29.223Z,49.28
2019-03-24T17:23:58.924Z,49.77
2019-03-24T17:26:29.063Z,49.23
2019-03-24T17:28:59.786Z,49.83
2019-03-24T17:31:29.511Z,50.11
2019-03-24T17:33:59.560Z,49.43
2019-03-24T17:36:29.301Z,49.88
2019-03-24T17:38:59.055Z,50.23
2019-03-24T17:41:29.446Z,49.77
2019-03-24T17:44:03.451Z,50.29
2019-03-24T17:46:33.046Z,50.97
2019-03-24T17:49:03.788Z,50.98
2019-03-24T17:51:33.684Z,51.33
2019-03-24T17:54:03.880Z,52.13
2019-03-24T17:56:33.671Z,51.95
2019-03-24T17:59:03.498Z,52.37
2019-03-24T18:01:33.244Z,52.84
2019-03-24T18:04:03.930Z,53.10
2019-03-24T18:06:34.029Z,53.56
2019-03-24T18:09:04.603Z,54.16
2019-03-24T18:11:35.009Z,54.16
2019-03-24T18:14:04.764Z,54.89
2019-03-24T18:16:35.870Z,55.28
2019-03-24T18:19:06.683Z,55.43
2019-03-24T18:21:37.343Z,55.55
2019-03-24T18:24:07.217Z,55.95
2019-03-24T18:26:37.359Z,55.87
2019-03-24T18:29:07.068Z,55.73
2019-03-24T18:31:36.861Z,55.84
2019-03-24T18:34:06.577Z,55.37
2019-03-24T18:36:36.355Z,55.43
2019-03-24T18:39:09.148Z,55.63
2019-03-24T18:41:38.947Z,55.65
2019-03-24T18:44:08.948Z,55.67
2019-03-24T18:46:39.506Z,55.94
2019-03-24T18:49:09.296Z,56.66
2019-03-24T18:51:39.047Z,57.36
2019-03-24T18:54:08.949Z,57.83
2019-03-24T18:56:38.666Z,58.40
2019-03-24T18:59:08.649Z,58.90
2019-03-24T19:01:38.771Z,59.48
2019-03-24T19:04:10.505Z,59.91
2019-03-24T19:06:40.771Z,60.51
2019-03-24T19:09:13.442Z,60.81
2019-03-24T19:11:44.350Z,60.85
2019-03-24T19:14:14.203Z,61.40
2019-03-24T19:16:44.257Z,61.57
2019-03-24T19:19:14.796Z,61.86
2019-03-24T19:21:44.479Z,61.93
2019-03-24T19:24:14.257Z,61.96
2019-03-24T19:26:44.113Z,62.25
2019-03-24T19:29:14.163Z,62.67
2019-03-24T19:31:44.188Z,62.86
2019-03-24T19:34:14.230Z,63.14
2019-03-24T19:36:44.133Z,63.38
2019-03-24T19:39:14.007Z,63.85
2019-03-24T19:41:43.861Z,63.99
2019-03-24T19:44:13.879Z,64.36
2019-03-24T19:46:44.127Z,64.41
2019-03-24T19:49:13.872Z,64.59
2019-03-24T19:51:43.766Z,64.83
2019-03-24T19:54:13.693Z,65.00
2019-03-24T19:56:43.988Z,65.19
2019-03-24T19:59:14.800Z,65.40
2019-03-24T20:01:45.021Z,65.28
2019-03-24T20:04:15.136Z,65.51
2019-03-24T20:06:45.181Z,65.93
2019-03-24T20:09:15.394Z,65.99
2019-03-24T20:11:45.265Z,66.30
2019-03-24T20:14:15.426Z,66.35
2019-03-24T20:16:46.081Z,66.48
2019-03-24T20:19:15.879Z,66.82
2019-03-24T20:21:45.601Z,67.33
2019-03-24T20:24:15.301Z,67.31
2019-03-24T20:26:45.053Z,67.40
2019-03-24T20:29:14.980Z,67.58
2019-03-24T20:31:45.002Z,67.78
2019-03-24T20:34:14.912Z,68.01
2019-03-24T20:36:45.408Z,68.09
2019-03-24T20:39:15.149Z,68.15
2019-03-24T20:41:45.067Z,68.12
2019-03-24T20:44:14.949Z,68.27
2019-03-24T20:46:44.670Z,68.33
2019-03-24T20:49:14.588Z,68.78
2019-03-24T20:51:44.321Z,68.86
2019-03-24T20:54:14.848Z,68.74
2019-03-24T20:56:44.718Z,69.13
2019-03-24T20:59:14.945Z,68.99
2019-03-24T21:01:44.638Z,68.99
2019-03-24T21:04:17.330Z,69.01
2019-03-24T21:06:47.423Z,69.07
2019-03-24T21:09:17.580Z,69.16
2019-03-24T21:11:48.027Z,69.32
2019-03-24T21:14:17.747Z,69.41
2019-03-24T21:16:47.729Z,69.14
2019-03-24T21:19:17.735Z,69.29
2019-03-24T21:21:47.587Z,69.53
2019-03-24T21:24:17.807Z,69.61
2019-03-24T21:26:47.635Z,69.54
2019-03-24T21:29:17.423Z,69.32
2019-03-24T21:31:48.530Z,69.21
2019-03-24T21:34:19.051Z,69.04
2019-03-24T21:36:49.507Z,69.37
2019-03-24T21:39:19.284Z,69.58
2019-03-24T21:41:49.362Z,69.66
2019-03-24T21:44:19.121Z,69.46
2019-03-24T21:46:48.842Z,69.57
2019-03-24T21:49:19.055Z,69.59
2019-03-24T21:51:49.215Z,69.67
2019-03-24T21:54:18.987Z,69.60
2019-03-24T21:56:49.092Z,69.77
2019-03-24T21:59:19.151Z,69.67
2019-03-24T22:01:48.913Z,69.74
2019-03-24T22:04:18.623Z,69.82
2019-03-24T22:06:48.598Z,69.61
2019-03-24T22:09:18.399Z,69.76
2019-03-24T22:11:49.070Z,69.93
2019-03-24T22:14:19.186Z,69.88
2019-03-24T22:16:48.876Z,69.90
2019-03-24T22:19:19.091Z,69.48
2019-03-24T22:21:49.123Z,69.31
2019-03-24T22:24:19.155Z,69.45
2019-03-24T22:26:49.325Z,69.54
2019-03-24T22:29:19.065Z,69.72
2019-03-24T22:31:48.948Z,69.78
2019-03-24T22:34:18.697Z,69.48
2019-03-24T22:36:48.428Z,69.44
2019-03-24T22:39:18.527Z,69.77
2019-03-24T22:41:48.660Z,69.75
2019-03-24T22:44:18.375Z,69.88
2019-03-24T22:46:48.691Z,69.74
2019-03-24T22:49:18.704Z,69.82
2019-03-24T22:51:48.432Z,70.18
2019-03-24T22:54:18.530Z,70.64
2019-03-24T22:56:48.297Z,70.87
2019-03-24T22:59:18.027Z,70.97
2019-03-24T23:01:47.807Z,71.28
2019-03-24T23:04:18.234Z,71.48
2019-03-24T23:06:48.314Z,71.39
2019-03-24T23:09:18.298Z,71.38
2019-03-24T23:11:48.358Z,71.45
2019-03-24T23:14:18.120Z,71.49
2019-03-24T23:16:47.913Z,71.72
2019-03-24T23:19:18.203Z,71.66
2019-03-24T23:21:48.281Z,71.86
2019-03-24T23:24:18.345Z,72.22
2019-03-24T23:26:48.459Z,72.04
2019-03-24T23:29:18.483Z,72.02
2019-03-24T23:31:48.246Z,71.66
2019-03-24T23:34:17.953Z,71.21
2019-03-24T23:36:47.697Z,70.92
2019-03-24T23:39:17.427Z,70.69
2019-03-24T23:41:47.114Z,70.66
2019-03-24T23:44:16.859Z,70.43
2019-03-24T23:46:46.582Z,70.03
2019-03-24T23:49:17.234Z,69.27
2019-03-24T23:51:46.945Z,68.82
2019-03-24T23:54:26.538Z,68.58
2019-03-24T23:56:48.377Z,68.55
2019-03-24T23:59:18.200Z,68.24
